Time;durP1;ratioP1;P1;durP2;ratioP2;P2;SDS_P1;SDS_P2;PMS_P1;PMS_P2;Temp;Humidity;BMP_temperature;BMP_pressure;BME280_temperature;BME280_humidity;BME280_pressure;Samples;Min_cycle;Max_cycle;Signal;HPM_P1;HPM_P2
2020/12/06 00:01:08;;;;;;;52.73;24.57;;;8.20;99.90;;;;;;5090686;28;20239;-68
2020/12/06 00:03:36;;;;;;;48.17;23.17;;;8.20;99.90;;;;;;5091820;28;20282;-67
2020/12/06 00:06:03;;;;;;;48.40;24.53;;;8.20;99.90;;;;;;5091831;28;20229;-67
2020/12/06 00:08:29;;;;;;;50.77;24.43;;;8.20;99.90;;;;;;5091741;28;20251;-68
2020/12/06 00:10:56;;;;;;;49.43;25.00;;;8.20;99.90;;;;;;5091542;28;20239;-69
2020/12/06 00:13:23;;;;;;;53.73;25.70;;;8.20;99.90;;;;;;5091568;28;20194;-67
2020/12/06 00:15:50;;;;;;;53.83;24.07;;;8.20;99.90;;;;;;5091706;28;20229;-68
2020/12/06 00:18:17;;;;;;;51.37;25.10;;;8.20;99.90;;;;;;5071252;28;20276;-68
2020/12/06 00:20:44;;;;;;;53.03;24.77;;;8.20;99.90;;;;;;5071173;28;20218;-67
2020/12/06 00:23:11;;;;;;;50.93;24.57;;;8.20;99.90;;;;;;5070727;28;20271;-68
2020/12/06 00:25:37;;;;;;;45.27;24.23;;;8.20;99.90;;;;;;5071470;28;20248;-68
2020/12/06 00:28:04;;;;;;;50.03;24.93;;;8.20;99.90;;;;;;5079335;28;20186;-68
2020/12/06 00:30:30;;;;;;;48.50;24.03;;;8.20;99.90;;;;;;5091854;28;20183;-69
2020/12/06 00:32:57;;;;;;;53.90;25.60;;;8.20;99.90;;;;;;5086013;28;20187;-68
2020/12/06 00:35:24;;;;;;;46.60;24.03;;;8.20;99.90;;;;;;5071029;28;20951;-68
2020/12/06 00:37:50;;;;;;;59.27;25.23;;;8.20;99.90;;;;;;5070979;28;20686;-67
2020/12/06 00:40:17;;;;;;;52.10;24.60;;;8.30;99.90;;;;;;5071431;28;20272;-68
2020/12/06 00:42:43;;;;;;;55.50;24.63;;;8.30;99.90;;;;;;5071261;28;20226;-68
2020/12/06 00:45:09;;;;;;;51.63;25.43;;;8.30;99.90;;;;;;5070978;28;20233;-67
2020/12/06 00:47:37;;;;;;;50.10;24.93;;;8.20;99.90;;;;;;5071393;28;20218;-67
2020/12/06 00:50:05;;;;;;;47.53;24.70;;;8.30;99.90;;;;;;5071375;28;20187;-67
2020/12/06 00:52:33;;;;;;;56.57;24.77;;;8.20;99.90;;;;;;5070841;28;20332;-68
2020/12/06 00:55:00;;;;;;;53.57;25.60;;;8.20;99.90;;;;;;5074192;28;20725;-66
2020/12/06 00:57:26;;;;;;;54.63;25.40;;;8.30;99.90;;;;;;5091149;28;20239;-67
2020/12/06 00:59:53;;;;;;;52.63;25.03;;;8.20;99.90;;;;;;5091097;28;20252;-67
2020/12/06 01:02:19;;;;;;;53.97;24.93;;;8.20;99.90;;;;;;5091384;28;20293;-67
2020/12/06 01:04:46;;;;;;;49.13;23.97;;;8.20;99.90;;;;;;5091024;28;20308;-67
2020/12/06 01:07:12;;;;;;;54.43;25.43;;;8.20;99.90;;;;;;5090929;28;20678;-67
2020/12/06 01:09:40;;;;;;;49.13;24.50;;;8.20;99.90;;;;;;5091143;28;20191;-68
2020/12/06 01:12:06;;;;;;;57.57;25.50;;;8.20;99.90;;;;;;5091148;28;20327;-68
2020/12/06 01:14:33;;;;;;;49.93;24.20;;;8.20;99.90;;;;;;5091251;28;20651;-68
2020/12/06 01:16:59;;;;;;;46.53;23.63;;;8.20;99.90;;;;;;5091286;28;20264;-69
2020/12/06 01:19:25;;;;;;;46.23;23.93;;;8.30;99.90;;;;;;5091180;28;20240;-68
2020/12/06 01:21:52;;;;;;;51.90;24.60;;;8.20;99.90;;;;;;5091134;28;20210;-68
2020/12/06 01:24:19;;;;;;;50.67;24.87;;;8.20;99.90;;;;;;5090612;28;20604;-68
2020/12/06 01:26:47;;;;;;;50.77;25.50;;;8.20;99.90;;;;;;5090283;28;20203;-69
2020/12/06 01:29:14;;;;;;;49.57;25.67;;;8.20;99.90;;;;;;5070398;28;20227;-68
2020/12/06 01:31:44;;;;;;;50.60;24.47;;;8.20;99.90;;;;;;5071232;28;20260;-68
2020/12/06 01:34:11;;;;;;;50.13;24.87;;;8.20;99.90;;;;;;5071541;28;20254;-67
2020/12/06 01:36:37;;;;;;;45.17;24.50;;;8.20;99.90;;;;;;5074371;28;20686;-68
2020/12/06 01:39:04;;;;;;;52.00;24.77;;;8.20;99.90;;;;;;5073994;28;20254;-68
2020/12/06 01:41:30;;;;;;;51.10;25.67;;;8.20;99.90;;;;;;5074489;28;20226;-67
2020/12/06 01:43:58;;;;;;;50.47;25.13;;;8.20;99.90;;;;;;5073577;28;20221;-68
2020/12/06 01:46:25;;;;;;;51.77;26.27;;;8.20;99.90;;;;;;5074504;28;20245;-68
2020/12/06 01:48:54;;;;;;;49.07;26.03;;;8.20;99.90;;;;;;5083354;28;20578;-68
2020/12/06 01:51:22;;;;;;;57.57;26.43;;;8.20;99.90;;;;;;5093456;28;20651;-66
2020/12/06 01:53:50;;;;;;;46.67;25.90;;;8.20;99.90;;;;;;5094121;28;20226;-68
2020/12/06 01:56:16;;;;;;;55.50;25.70;;;8.20;99.90;;;;;;5093850;28;20618;-67
2020/12/06 01:58:43;;;;;;;50.67;25.93;;;8.20;99.90;;;;;;5076374;28;20234;-68
2020/12/06 02:01:11;;;;;;;52.53;25.80;;;8.20;99.90;;;;;;5073920;28;20222;-68
2020/12/06 02:03:38;;;;;;;51.57;24.90;;;8.20;99.90;;;;;;5073705;28;20274;-67
2020/12/06 02:06:05;;;;;;;50.40;25.47;;;8.20;99.90;;;;;;5073721;28;20611;-67
2020/12/06 02:08:32;;;;;;;49.37;25.97;;;8.20;99.90;;;;;;5073611;28;20209;-67
2020/12/06 02:10:59;;;;;;;54.23;26.20;;;8.20;99.90;;;;;;5073892;28;20214;-68
2020/12/06 02:13:25;;;;;;;55.07;26.50;;;8.20;99.90;;;;;;5083551;28;20229;-67
2020/12/06 02:15:54;;;;;;;56.57;26.37;;;8.20;99.90;;;;;;5093627;28;20249;-68
2020/12/06 02:18:22;;;;;;;53.60;25.87;;;8.20;99.90;;;;;;5093958;28;20289;-68
2020/12/06 02:20:49;;;;;;;52.17;25.63;;;8.20;99.90;;;;;;5073956;28;20194;-67
2020/12/06 02:23:16;;;;;;;54.27;26.00;;;8.20;99.90;;;;;;5073488;28;20386;-68
2020/12/06 02:25:42;;;;;;;55.13;26.50;;;8.20;99.90;;;;;;5081394;28;20609;-69
2020/12/06 02:28:09;;;;;;;51.77;25.17;;;8.20;99.90;;;;;;5093809;28;20213;-68
2020/12/06 02:30:36;;;;;;;59.20;26.20;;;8.20;99.90;;;;;;5092033;28;20283;-68
2020/12/06 02:33:04;;;;;;;52.10;26.80;;;8.20;99.90;;;;;;5093711;28;20217;-68
2020/12/06 02:35:31;;;;;;;52.97;25.73;;;8.20;99.90;;;;;;5093241;28;20283;-68
2020/12/06 02:37:58;;;;;;;55.93;27.50;;;8.20;99.90;;;;;;5093112;28;20317;-67
2020/12/06 02:40:25;;;;;;;56.53;26.73;;;8.20;99.90;;;;;;5093441;28;20236;-68
2020/12/06 02:42:51;;;;;;;58.10;27.50;;;8.20;99.90;;;;;;5093800;28;20198;-69
2020/12/06 02:45:17;;;;;;;54.03;26.53;;;8.20;99.90;;;;;;5093169;28;20230;-66
2020/12/06 02:47:44;;;;;;;57.77;27.07;;;8.20;99.90;;;;;;5083200;28;20229;-68
2020/12/06 02:50:10;;;;;;;54.07;26.23;;;8.20;99.90;;;;;;5073158;28;20295;-68
2020/12/06 02:52:37;;;;;;;55.07;25.97;;;8.20;99.90;;;;;;5072927;28;20195;-67
2020/12/06 02:55:04;;;;;;;57.23;27.80;;;8.20;99.90;;;;;;5076043;28;20242;-67
2020/12/06 02:57:31;;;;;;;54.03;27.87;;;8.20;99.90;;;;;;5092865;28;20190;-67
2020/12/06 02:59:57;;;;;;;54.97;27.73;;;8.20;99.90;;;;;;5082831;28;20592;-66
2020/12/06 03:02:24;;;;;;;61.80;28.27;;;8.20;99.90;;;;;;5072811;28;20234;-68
2020/12/06 03:04:50;;;;;;;56.27;28.03;;;8.20;99.90;;;;;;5072743;28;20237;-68
2020/12/06 03:07:17;;;;;;;53.67;27.60;;;8.20;99.90;;;;;;5072410;28;20187;-67
2020/12/06 03:09:43;;;;;;;57.77;27.13;;;8.20;99.90;;;;;;5081988;28;20298;-68
2020/12/06 03:12:10;;;;;;;56.80;28.30;;;8.20;99.90;;;;;;5091978;28;20275;-68
2020/12/06 03:14:37;;;;;;;59.60;27.13;;;8.20;99.90;;;;;;5092466;28;20661;-70
2020/12/06 03:17:03;;;;;;;57.63;27.33;;;8.20;99.90;;;;;;5091697;28;20226;-68
2020/12/06 03:19:30;;;;;;;59.53;28.87;;;8.20;99.90;;;;;;5092524;28;20237;-67
2020/12/06 03:21:56;;;;;;;56.50;28.40;;;8.20;99.90;;;;;;5092248;28;20194;-67
2020/12/06 03:24:24;;;;;;;61.00;27.90;;;8.20;99.90;;;;;;5092661;28;20658;-67
2020/12/06 03:26:50;;;;;;;57.20;29.00;;;8.20;99.90;;;;;;5092327;28;20237;-68
2020/12/06 03:29:18;;;;;;;65.23;29.33;;;8.20;99.90;;;;;;5092409;28;20234;-68
2020/12/06 03:31:44;;;;;;;52.70;27.40;;;8.20;99.90;;;;;;5092315;28;20669;-69
2020/12/06 03:34:10;;;;;;;56.20;28.23;;;8.20;99.90;;;;;;5092328;28;20295;-68
2020/12/06 03:36:37;;;;;;;60.43;27.37;;;8.20;99.90;;;;;;5092084;28;20233;-67
2020/12/06 03:39:03;;;;;;;52.07;26.53;;;8.20;99.90;;;;;;5092060;28;20257;-68
2020/12/06 03:41:30;;;;;;;59.47;27.47;;;8.20;99.90;;;;;;5092570;28;20226;-69
2020/12/06 03:43:57;;;;;;;57.27;27.67;;;8.20;99.90;;;;;;5091244;28;20224;-68
2020/12/06 03:46:24;;;;;;;62.57;29.97;;;8.20;99.90;;;;;;5091934;28;20194;-68
2020/12/06 03:48:51;;;;;;;55.27;26.97;;;8.20;99.90;;;;;;5091727;28;20262;-68
2020/12/06 03:51:17;;;;;;;52.00;26.30;;;8.20;99.90;;;;;;5092288;28;20213;-69
2020/12/06 03:53:44;;;;;;;53.83;27.70;;;8.20;99.90;;;;;;5091740;28;20253;-67
2020/12/06 03:56:10;;;;;;;60.90;28.50;;;8.20;99.90;;;;;;5090708;28;20260;-67
2020/12/06 03:58:37;;;;;;;58.77;29.27;;;8.20;99.90;;;;;;5091124;28;20197;-67
2020/12/06 04:01:03;;;;;;;56.80;28.80;;;8.20;99.90;;;;;;5092759;28;20240;-67
2020/12/06 04:03:31;;;;;;;58.73;28.57;;;8.20;99.90;;;;;;5091735;28;20311;-68
2020/12/06 04:05:57;;;;;;;59.00;28.13;;;8.20;99.90;;;;;;5077744;28;20195;-69
2020/12/06 04:08:23;;;;;;;57.83;28.93;;;8.20;99.90;;;;;;5071637;28;20195;-68
2020/12/06 04:10:50;;;;;;;58.23;29.03;;;8.20;99.90;;;;;;5071302;28;20271;-68
2020/12/06 04:13:16;;;;;;;59.20;28.93;;;8.20;99.90;;;;;;5090240;28;20243;-67
2020/12/06 04:15:43;;;;;;;58.67;28.13;;;8.20;99.90;;;;;;5091533;28;20253;-68
2020/12/06 04:18:09;;;;;;;59.57;29.73;;;8.20;99.90;;;;;;5092071;28;20227;-67
2020/12/06 04:20:36;;;;;;;55.07;29.43;;;8.20;99.90;;;;;;5091134;28;20262;-67
2020/12/06 04:23:03;;;;;;;55.53;28.37;;;8.20;99.90;;;;;;5091352;28;20745;-70
2020/12/06 04:25:29;;;;;;;58.40;29.57;;;8.20;99.90;;;;;;5091426;28;20263;-67
2020/12/06 04:27:56;;;;;;;53.87;28.67;;;8.20;99.90;;;;;;5091412;28;20222;-68
2020/12/06 04:30:22;;;;;;;62.23;30.20;;;8.20;99.90;;;;;;5091279;28;20245;-68
2020/12/06 04:32:49;;;;;;;66.53;29.77;;;8.20;99.90;;;;;;5091706;28;20617;-67
2020/12/06 04:35:15;;;;;;;58.93;28.97;;;8.20;99.90;;;;;;5090976;28;20213;-67
2020/12/06 04:37:43;;;;;;;56.77;29.27;;;8.20;99.90;;;;;;5091133;28;20709;-68
2020/12/06 04:40:09;;;;;;;57.43;30.33;;;8.20;99.90;;;;;;5090323;28;20250;-67
2020/12/06 04:42:37;;;;;;;56.53;28.60;;;8.20;99.90;;;;;;5091330;28;20233;-67
2020/12/06 04:45:03;;;;;;;56.17;29.37;;;8.20;99.90;;;;;;5091454;28;20251;-68
2020/12/06 04:47:46;;;;;;;58.70;29.77;;;8.20;99.90;;;;;;5090775;28;20206;-69
2020/12/06 04:50:20;;;;;;;60.40;29.20;;;8.20;99.90;;;;;;5071574;28;20276;-67
2020/12/06 04:52:55;;;;;;;59.07;29.13;;;8.20;99.90;;;;;;5070816;28;20263;-67
2020/12/06 04:55:26;;;;;;;59.07;29.33;;;8.20;99.90;;;;;;5074613;28;20310;-69
2020/12/06 04:57:55;;;;;;;59.80;29.60;;;8.20;99.90;;;;;;5091181;28;20178;-67
2020/12/06 05:00:31;;;;;;;56.33;28.57;;;8.20;99.90;;;;;;5091189;28;20243;-68
2020/12/06 05:03:00;;;;;;;56.40;27.97;;;8.20;99.90;;;;;;5090885;28;20705;-69
2020/12/06 05:05:34;;;;;;;57.97;29.53;;;8.20;99.90;;;;;;5090314;28;20187;-67
2020/12/06 05:08:07;;;;;;;57.07;29.30;;;8.20;99.90;;;;;;5091804;28;20209;-68
2020/12/06 05:10:36;;;;;;;65.07;30.73;;;8.20;99.90;;;;;;5094822;28;20371;-67
2020/12/06 05:13:03;;;;;;;65.40;30.80;;;8.30;99.90;;;;;;5095039;28;20236;-67
2020/12/06 05:15:30;;;;;;;58.40;30.13;;;8.20;99.90;;;;;;5095501;28;20574;-67
2020/12/06 05:17:57;;;;;;;63.40;31.40;;;8.20;99.90;;;;;;5094655;28;20198;-65
2020/12/06 05:20:25;;;;;;;61.07;30.17;;;8.30;99.90;;;;;;5094553;28;20187;-66
2020/12/06 05:22:51;;;;;;;65.60;31.03;;;8.20;99.90;;;;;;5094971;28;20202;-67
2020/12/06 05:25:19;;;;;;;60.93;30.17;;;8.30;99.90;;;;;;5094698;28;20526;-67
2020/12/06 05:27:46;;;;;;;59.63;31.27;;;8.20;99.90;;;;;;5094854;28;20241;-67
2020/12/06 05:30:12;;;;;;;58.33;30.20;;;8.20;99.90;;;;;;5094831;28;20183;-67
2020/12/06 05:32:39;;;;;;;56.20;29.57;;;8.20;99.90;;;;;;5094912;28;20225;-67
2020/12/06 05:35:07;;;;;;;60.27;31.67;;;8.30;99.90;;;;;;5094143;28;20214;-69
2020/12/06 05:37:35;;;;;;;60.70;30.87;;;8.20;99.90;;;;;;5094728;28;20265;-68
2020/12/06 05:40:03;;;;;;;62.57;30.50;;;8.30;99.90;;;;;;5093379;28;20619;-68
2020/12/06 05:42:31;;;;;;;61.87;30.80;;;8.30;99.90;;;;;;5074339;28;20191;-67
2020/12/06 05:44:58;;;;;;;61.47;29.77;;;8.30;99.90;;;;;;5073899;28;20616;-69
2020/12/06 05:47:25;;;;;;;59.57;31.27;;;8.30;99.90;;;;;;5074774;28;20245;-68
2020/12/06 05:49:51;;;;;;;62.97;30.27;;;8.30;99.90;;;;;;5094339;28;20229;-66
2020/12/06 05:52:18;;;;;;;60.70;30.60;;;8.30;99.90;;;;;;5094748;28;20234;-67
2020/12/06 05:54:45;;;;;;;59.07;28.03;;;8.30;99.90;;;;;;5094350;28;20217;-68
2020/12/06 05:57:12;;;;;;;54.13;28.90;;;8.30;99.90;;;;;;5093908;28;20236;-69
2020/12/06 05:59:41;;;;;;;58.77;29.93;;;8.30;99.90;;;;;;5094006;28;20190;-69
2020/12/06 06:02:08;;;;;;;60.70;29.93;;;8.30;99.90;;;;;;5092833;28;20225;-68
2020/12/06 06:04:38;;;;;;;56.83;29.17;;;8.20;99.90;;;;;;5093976;28;20660;-67
2020/12/06 06:07:07;;;;;;;57.57;29.83;;;8.30;99.90;;;;;;5093921;28;20183;-67
2020/12/06 06:09:42;;;;;;;58.90;29.97;;;8.20;99.90;;;;;;5093948;28;20198;-67
2020/12/06 06:12:30;;;;;;;58.17;28.70;;;8.30;99.90;;;;;;5093954;28;20660;-69
2020/12/06 06:15:00;;;;;;;58.83;29.77;;;8.30;99.90;;;;;;5094134;28;20275;-68
2020/12/06 06:17:28;;;;;;;59.07;29.13;;;8.30;99.90;;;;;;5094076;28;20244;-67
2020/12/06 06:19:55;;;;;;;54.47;28.63;;;8.20;99.90;;;;;;5092320;28;20233;-66
2020/12/06 06:22:26;;;;;;;63.20;29.50;;;8.20;99.90;;;;;;5094238;28;20273;-68
2020/12/06 06:24:55;;;;;;;60.73;28.97;;;8.30;99.90;;;;;;5093089;28;20596;-68
2020/12/06 06:27:21;;;;;;;55.53;28.40;;;8.20;99.90;;;;;;5094025;28;20236;-67
2020/12/06 06:29:49;;;;;;;60.83;30.37;;;8.30;99.90;;;;;;5089027;28;20287;-68
2020/12/06 06:32:19;;;;;;;57.60;29.70;;;8.30;99.90;;;;;;5073315;28;20330;-68
2020/12/06 06:34:46;;;;;;;56.03;29.43;;;8.30;99.90;;;;;;5073620;28;20286;-68
2020/12/06 06:37:15;;;;;;;56.63;29.07;;;8.30;99.90;;;;;;5085790;28;20236;-68
2020/12/06 06:39:42;;;;;;;60.60;30.00;;;8.20;99.90;;;;;;5094066;28;20225;-68
2020/12/06 06:42:11;;;;;;;58.30;29.77;;;8.20;99.90;;;;;;5093798;28;20245;-69
2020/12/06 06:44:39;;;;;;;63.23;31.33;;;8.30;99.90;;;;;;5093754;28;20650;-68
2020/12/06 06:47:07;;;;;;;57.87;31.43;;;8.30;99.90;;;;;;5093383;28;20668;-70
2020/12/06 06:49:49;;;;;;;61.83;30.07;;;8.30;99.90;;;;;;5093836;28;20230;-68
2020/12/06 06:52:17;;;;;;;62.73;30.93;;;8.30;99.90;;;;;;5093581;28;20259;-70
2020/12/06 06:54:50;;;;;;;61.63;30.23;;;8.30;99.90;;;;;;5093532;28;20291;-68
2020/12/06 06:57:18;;;;;;;71.90;31.33;;;8.30;99.90;;;;;;5093075;28;20645;-68
2020/12/06 06:59:46;;;;;;;58.93;30.37;;;8.30;99.90;;;;;;5092835;28;20239;-68
2020/12/06 07:02:35;;;;;;;61.97;31.70;;;8.30;99.90;;;;;;5093164;28;20798;-68
2020/12/06 07:05:04;;;;;;;64.93;31.53;;;8.20;99.90;;;;;;5090235;28;20193;-69
2020/12/06 07:07:44;;;;;;;68.30;32.27;;;8.20;99.90;;;;;;5092856;28;20190;-68
2020/12/06 07:10:12;;;;;;;63.33;31.97;;;8.30;99.90;;;;;;5092892;28;20183;-66
2020/12/06 07:12:40;;;;;;;61.77;31.27;;;8.30;99.90;;;;;;5092987;28;20209;-67
2020/12/06 07:15:08;;;;;;;62.10;32.10;;;8.30;99.90;;;;;;5091937;28;20245;-66
2020/12/06 07:17:35;;;;;;;62.77;32.10;;;8.30;99.90;;;;;;5092069;28;20190;-67
2020/12/06 07:20:04;;;;;;;60.17;31.57;;;8.30;99.90;;;;;;5092695;28;20217;-69
2020/12/06 07:22:31;;;;;;;62.80;31.17;;;8.30;99.90;;;;;;5092542;28;20234;-67
2020/12/06 07:24:58;;;;;;;60.40;32.03;;;8.30;99.90;;;;;;5090853;28;20240;-67
2020/12/06 07:27:25;;;;;;;64.53;32.33;;;8.30;99.90;;;;;;5092444;28;20230;-67
2020/12/06 07:29:51;;;;;;;60.30;31.97;;;8.20;99.90;;;;;;5084591;28;20211;-66
2020/12/06 07:32:20;;;;;;;64.90;33.00;;;8.20;99.90;;;;;;5075496;28;20222;-67
2020/12/06 07:34:47;;;;;;;65.30;31.40;;;8.30;99.90;;;;;;5092042;28;20564;-67
2020/12/06 07:37:15;;;;;;;70.20;32.37;;;8.30;99.90;;;;;;5091943;28;20293;-67
2020/12/06 07:39:42;;;;;;;64.97;31.97;;;8.30;99.90;;;;;;5092690;28;20248;-68
2020/12/06 07:42:09;;;;;;;66.93;32.30;;;8.30;99.90;;;;;;5092393;28;20218;-66
2020/12/06 07:44:45;;;;;;;64.07;31.97;;;8.30;99.90;;;;;;5091544;28;20218;-66
2020/12/06 07:47:12;;;;;;;63.73;32.27;;;8.30;99.90;;;;;;5092274;28;20178;-65
2020/12/06 07:49:43;;;;;;;65.40;32.27;;;8.30;99.90;;;;;;5091795;28;20630;-67
2020/12/06 07:52:14;;;;;;;60.97;32.20;;;8.30;99.90;;;;;;5090049;28;20229;-68
2020/12/06 07:54:41;;;;;;;62.20;31.00;;;8.30;99.90;;;;;;5091939;28;20248;-66
2020/12/06 07:57:10;;;;;;;65.90;31.93;;;8.30;99.90;;;;;;5092130;28;20233;-67
2020/12/06 07:59:37;;;;;;;59.93;32.40;;;8.30;99.90;;;;;;5092027;28;20194;-68
2020/12/06 08:02:04;;;;;;;65.73;32.73;;;8.30;99.90;;;;;;5092086;28;20230;-67
2020/12/06 08:04:35;;;;;;;63.43;32.67;;;8.30;99.90;;;;;;5091891;28;20201;-67
2020/12/06 08:07:10;;;;;;;64.13;33.43;;;8.30;99.90;;;;;;5091499;28;20222;-69
2020/12/06 08:09:41;;;;;;;70.20;33.40;;;8.30;99.90;;;;;;5092471;28;20192;-67
2020/12/06 08:12:10;;;;;;;65.37;32.80;;;8.30;99.90;;;;;;5091611;28;20244;-68
2020/12/06 08:14:38;;;;;;;61.17;32.13;;;8.30;99.90;;;;;;5091731;28;20212;-68
2020/12/06 08:17:04;;;;;;;68.77;32.57;;;8.30;99.90;;;;;;5091515;28;20599;-66
2020/12/06 08:19:31;;;;;;;65.13;32.70;;;8.30;99.90;;;;;;5075199;28;20226;-68
2020/12/06 08:22:02;;;;;;;59.77;31.80;;;8.30;99.90;;;;;;5091620;28;20372;-66
2020/12/06 08:24:30;;;;;;;61.87;32.10;;;8.30;99.90;;;;;;5084022;28;20210;-67
2020/12/06 08:26:59;;;;;;;63.63;31.87;;;8.30;99.90;;;;;;5091561;28;20233;-66
2020/12/06 08:29:39;;;;;;;62.40;31.30;;;8.30;99.90;;;;;;5091397;28;20222;-69
2020/12/06 08:32:06;;;;;;;63.03;32.67;;;8.30;99.90;;;;;;5094336;28;20177;-69
2020/12/06 08:34:33;;;;;;;66.23;32.80;;;8.30;99.90;;;;;;5112157;28;20215;-67
2020/12/06 08:37:15;;;;;;;62.77;32.20;;;8.30;99.90;;;;;;5099594;28;20229;-68
2020/12/06 08:39:42;;;;;;;65.93;33.23;;;8.30;99.90;;;;;;5086033;28;20195;-67
2020/12/06 08:42:17;;;;;;;66.20;32.07;;;8.30;99.90;;;;;;5090077;28;20194;-69
2020/12/06 08:44:54;;;;;;;63.97;31.57;;;8.30;99.90;;;;;;5097874;28;20251;-67
2020/12/06 08:47:21;;;;;;;65.43;31.23;;;8.30;99.90;;;;;;5097870;28;20213;-66
2020/12/06 08:49:48;;;;;;;66.30;33.60;;;8.30;99.90;;;;;;5098820;28;20255;-68
2020/12/06 08:52:39;;;;;;;65.03;32.83;;;8.30;99.90;;;;;;5098230;28;20190;-69
2020/12/06 08:55:28;;;;;;;65.87;33.23;;;8.30;99.90;;;;;;5098721;28;20241;-70
2020/12/06 08:57:57;;;;;;;63.90;32.57;;;8.30;99.90;;;;;;5098782;28;20221;-71
2020/12/06 09:00:23;;;;;;;64.63;33.90;;;8.30;99.90;;;;;;5098516;28;20209;-71
2020/12/06 09:02:50;;;;;;;65.83;32.73;;;8.30;99.90;;;;;;5098973;28;20270;-70
2020/12/06 09:05:16;;;;;;;70.57;34.17;;;8.30;99.90;;;;;;5098671;28;20233;-69
2020/12/06 09:07:43;;;;;;;68.20;34.33;;;8.30;99.90;;;;;;5098312;28;20233;-67
2020/12/06 09:10:10;;;;;;;68.13;32.87;;;8.30;99.90;;;;;;5098735;28;20288;-68
2020/12/06 09:12:37;;;;;;;67.03;33.17;;;8.30;99.90;;;;;;5098217;28;20719;-69
2020/12/06 09:15:06;;;;;;;63.63;32.53;;;8.30;99.90;;;;;;5098691;28;20217;-69
2020/12/06 09:17:34;;;;;;;61.10;31.73;;;8.30;99.90;;;;;;5099006;28;20220;-69
2020/12/06 09:20:00;;;;;;;63.77;32.83;;;8.30;99.90;;;;;;5098995;28;20183;-70
2020/12/06 09:22:27;;;;;;;61.97;31.33;;;8.40;99.90;;;;;;5098346;28;20281;-69
2020/12/06 09:24:53;;;;;;;66.47;32.60;;;8.40;99.90;;;;;;5098359;28;20194;-70
2020/12/06 09:27:20;;;;;;;70.93;33.23;;;8.40;99.90;;;;;;5098354;28;20230;-69
2020/12/06 09:29:46;;;;;;;61.23;31.27;;;8.40;99.90;;;;;;5098712;28;20190;-68
2020/12/06 09:32:14;;;;;;;59.03;30.27;;;8.40;99.90;;;;;;5098188;28;20233;-69
2020/12/06 09:34:40;;;;;;;61.00;31.47;;;8.30;99.90;;;;;;5098490;28;20288;-69
2020/12/06 09:37:07;;;;;;;59.23;31.13;;;8.30;99.90;;;;;;5097826;28;20205;-68
2020/12/06 09:39:33;;;;;;;63.00;31.67;;;8.30;99.90;;;;;;5098290;28;20234;-68
2020/12/06 09:42:00;;;;;;;61.90;31.60;;;8.30;99.90;;;;;;5095874;28;20231;-70
2020/12/06 09:44:26;;;;;;;64.13;30.83;;;8.30;99.90;;;;;;5096744;28;20200;-71
2020/12/06 09:46:52;;;;;;;61.90;31.23;;;8.20;99.90;;;;;;5097208;28;20318;-69
2020/12/06 09:49:20;;;;;;;59.87;30.97;;;8.20;99.90;;;;;;5098210;28;20229;-70
2020/12/06 09:51:46;;;;;;;58.53;31.83;;;8.20;99.90;;;;;;5096401;28;20227;-67
2020/12/06 09:54:13;;;;;;;62.23;31.30;;;8.20;99.90;;;;;;5097286;28;20236;-71
2020/12/06 09:56:39;;;;;;;58.00;30.20;;;8.30;99.90;;;;;;5094277;28;20257;-71
2020/12/06 09:59:06;;;;;;;58.27;30.33;;;8.20;99.90;;;;;;5094622;28;20229;-68
2020/12/06 10:01:32;;;;;;;62.47;30.67;;;8.30;99.90;;;;;;5094643;28;20287;-70
2020/12/06 10:03:59;;;;;;;54.67;30.03;;;8.40;99.90;;;;;;5093136;28;20301;-68
2020/12/06 10:06:27;;;;;;;58.90;30.67;;;8.30;99.90;;;;;;5094764;28;20234;-67
2020/12/06 10:08:54;;;;;;;56.37;28.97;;;8.30;99.90;;;;;;5094286;28;20230;-66
2020/12/06 10:11:21;;;;;;;62.07;29.73;;;8.30;99.90;;;;;;5094794;28;20210;-68
2020/12/06 10:13:47;;;;;;;54.10;30.03;;;8.20;99.90;;;;;;5094286;28;20669;-73
2020/12/06 10:16:16;;;;;;;57.67;29.30;;;8.30;99.90;;;;;;5094251;28;20214;-68
2020/12/06 10:18:42;;;;;;;54.63;29.17;;;8.30;99.90;;;;;;5093720;28;20194;-66
2020/12/06 10:21:11;;;;;;;58.67;29.17;;;8.30;99.90;;;;;;5089839;28;20240;-69
2020/12/06 10:23:38;;;;;;;54.67;28.50;;;8.20;99.90;;;;;;5082104;28;20191;-68
2020/12/06 10:26:05;;;;;;;52.33;27.93;;;8.20;99.90;;;;;;5093708;28;20684;-66
2020/12/06 10:28:32;;;;;;;56.50;28.07;;;8.20;99.90;;;;;;5094015;28;20198;-74
2020/12/06 10:30:58;;;;;;;58.93;28.23;;;8.20;99.90;;;;;;5094388;28;20627;-72
2020/12/06 10:33:24;;;;;;;50.80;27.43;;;8.20;99.90;;;;;;5094341;28;20194;-71
2020/12/06 10:35:51;;;;;;;57.33;27.43;;;8.10;99.90;;;;;;5093902;28;20698;-73
2020/12/06 10:38:17;;;;;;;54.43;28.20;;;8.20;99.90;;;;;;5091947;28;20271;-68
2020/12/06 10:40:45;;;;;;;52.17;27.27;;;8.20;99.90;;;;;;5093983;28;20194;-68
2020/12/06 10:43:11;;;;;;;52.93;28.13;;;8.20;99.90;;;;;;5094304;28;20668;-67
2020/12/06 10:45:38;;;;;;;51.93;27.50;;;8.20;99.90;;;;;;5093924;28;20255;-68
2020/12/06 10:48:05;;;;;;;52.70;26.60;;;8.20;99.90;;;;;;5079537;28;20280;-68
2020/12/06 10:50:32;;;;;;;51.60;26.60;;;8.20;99.90;;;;;;5087166;28;20673;-67
2020/12/06 10:52:59;;;;;;;48.30;24.70;;;8.20;99.90;;;;;;5078266;28;20221;-71
2020/12/06 10:55:25;;;;;;;49.53;27.00;;;8.20;99.90;;;;;;5079684;28;20215;-66
2020/12/06 10:57:54;;;;;;;52.60;26.37;;;8.20;99.90;;;;;;5077540;28;20229;-69
2020/12/06 11:00:20;;;;;;;53.83;27.80;;;8.10;99.90;;;;;;5075107;28;20715;-67
2020/12/06 11:02:47;;;;;;;56.90;27.33;;;8.20;99.90;;;;;;5072685;28;20234;-68
2020/12/06 11:05:14;;;;;;;51.37;25.87;;;8.10;99.90;;;;;;5071451;28;20195;-68
2020/12/06 11:07:41;;;;;;;51.77;25.70;;;8.20;99.90;;;;;;5075200;28;20226;-70
2020/12/06 11:10:07;;;;;;;54.53;26.43;;;8.10;99.90;;;;;;5075044;28;20202;-70
2020/12/06 11:12:34;;;;;;;50.90;24.87;;;8.10;99.90;;;;;;5075350;28;20198;-70
2020/12/06 11:15:01;;;;;;;51.90;25.97;;;8.20;99.90;;;;;;5074794;28;20257;-69
2020/12/06 11:17:30;;;;;;;45.70;23.87;;;8.20;99.90;;;;;;5073677;28;20191;-68
2020/12/06 11:20:02;;;;;;;43.63;24.37;;;8.10;99.90;;;;;;5076494;28;20278;-72
2020/12/06 11:22:28;;;;;;;55.43;25.43;;;8.10;99.90;;;;;;5077222;28;20251;-67
2020/12/06 11:24:55;;;;;;;52.83;25.70;;;8.10;99.90;;;;;;5071940;28;20241;-68
2020/12/06 11:27:21;;;;;;;52.47;25.03;;;8.10;99.90;;;;;;5072319;28;20223;-70
2020/12/06 11:29:48;;;;;;;49.70;24.87;;;8.10;99.90;;;;;;5072825;28;20577;-69
2020/12/06 11:32:15;;;;;;;50.03;26.03;;;8.00;99.90;;;;;;5073015;28;20268;-70
2020/12/06 11:34:42;;;;;;;54.50;26.17;;;8.00;99.90;;;;;;5075365;28;20585;-70
2020/12/06 11:37:08;;;;;;;51.03;24.50;;;8.00;99.90;;;;;;5091217;28;20218;-69
2020/12/06 11:39:35;;;;;;;53.13;25.90;;;8.00;99.90;;;;;;5091850;28;20556;-66
2020/12/06 11:42:01;;;;;;;46.83;24.33;;;8.10;99.90;;;;;;5072729;28;20256;-68
2020/12/06 11:44:28;;;;;;;51.23;24.53;;;8.10;99.90;;;;;;5072794;28;20194;-67
2020/12/06 11:46:54;;;;;;;46.47;24.17;;;8.10;99.90;;;;;;5072415;28;20226;-69
2020/12/06 11:49:21;;;;;;;58.97;25.53;;;8.00;99.90;;;;;;5072518;28;20264;-67
2020/12/06 11:51:48;;;;;;;53.47;24.83;;;8.00;99.90;;;;;;5072975;28;20189;-71
2020/12/06 11:54:15;;;;;;;51.40;24.57;;;8.00;99.90;;;;;;5072406;28;20238;-68
2020/12/06 11:56:41;;;;;;;53.70;24.77;;;8.00;99.90;;;;;;5090955;28;20217;-66
2020/12/06 11:59:08;;;;;;;49.23;23.73;;;8.00;99.90;;;;;;5091549;28;20186;-68
2020/12/06 12:01:34;;;;;;;53.50;24.57;;;8.00;99.90;;;;;;5092756;28;20578;-67
2020/12/06 12:04:01;;;;;;;46.27;23.07;;;8.00;99.90;;;;;;5092443;28;20331;-67
2020/12/06 12:06:28;;;;;;;47.67;23.40;;;8.00;99.90;;;;;;5092311;28;20646;-67
2020/12/06 12:08:54;;;;;;;51.67;23.47;;;8.00;99.90;;;;;;5092789;28;20194;-65
2020/12/06 12:11:21;;;;;;;46.63;23.23;;;8.00;99.90;;;;;;5092754;28;20179;-67
2020/12/06 12:13:48;;;;;;;50.60;23.10;;;8.00;99.90;;;;;;5092712;28;20190;-68
2020/12/06 12:16:14;;;;;;;46.63;23.13;;;8.00;99.90;;;;;;5092618;28;20282;-68
2020/12/06 12:18:41;;;;;;;48.37;22.73;;;8.00;99.90;;;;;;5091428;28;20716;-65
2020/12/06 12:21:07;;;;;;;52.63;22.67;;;7.90;99.90;;;;;;5092663;28;20190;-69
2020/12/06 12:23:35;;;;;;;49.20;24.03;;;7.90;99.90;;;;;;5091970;28;20626;-66
2020/12/06 12:26:01;;;;;;;48.87;23.00;;;7.90;99.90;;;;;;5091986;28;20237;-67
2020/12/06 12:28:27;;;;;;;54.43;23.73;;;7.90;99.90;;;;;;5092008;28;20194;-65
2020/12/06 12:30:55;;;;;;;48.50;22.13;;;7.90;99.90;;;;;;5092035;28;20219;-67
2020/12/06 12:33:21;;;;;;;50.00;22.93;;;7.80;99.90;;;;;;5092260;28;20194;-67
2020/12/06 12:35:49;;;;;;;53.23;23.17;;;7.80;99.90;;;;;;5091985;28;20251;-66
2020/12/06 12:38:15;;;;;;;48.00;21.80;;;7.80;99.90;;;;;;5091934;28;20228;-65